createdAt,value
2018-03-02T00:00:07.037Z,-0.71
2018-03-02T00:02:33.330Z,-0.76
2018-03-02T00:04:59.786Z,-0.73
2018-03-02T00:07:26.214Z,-0.72
2018-03-02T00:09:59.717Z,-0.66
2018-03-02T00:12:26.042Z,-0.68
2018-03-02T00:14:52.406Z,-0.65
2018-03-02T00:17:18.761Z,-0.69
2018-03-02T00:19:45.162Z,-0.67
2018-03-02T00:22:11.515Z,-0.61
2018-03-02T00:24:37.951Z,-0.55
2018-03-02T00:27:04.313Z,-0.69
2018-03-02T00:29:30.724Z,-0.62
2018-03-02T00:31:57.165Z,-0.61
2018-03-02T00:34:23.514Z,-0.74
2018-03-02T00:36:49.874Z,-0.61
2018-03-02T00:39:16.264Z,-0.61
2018-03-02T00:41:42.686Z,-0.65
2018-03-02T00:44:09.074Z,-0.67
2018-03-02T00:46:35.426Z,-0.61
2018-03-02T00:49:01.861Z,-0.66
2018-03-02T00:51:28.201Z,-0.67
2018-03-02T00:53:54.554Z,-0.58
2018-03-02T00:56:20.900Z,-0.67
2018-03-02T00:58:47.282Z,-0.61
2018-03-02T01:01:13.627Z,-0.61
2018-03-02T01:03:40.043Z,-0.62
2018-03-02T01:06:06.425Z,-0.60
2018-03-02T01:08:32.824Z,-0.71
2018-03-02T01:10:59.220Z,-0.67
2018-03-02T01:13:25.590Z,-0.57
2018-03-02T01:15:52.003Z,-0.57
2018-03-02T01:18:18.378Z,-0.59
2018-03-02T01:20:44.867Z,-0.69
2018-03-02T01:23:11.271Z,-0.73
2018-03-02T01:25:37.688Z,-0.77
2018-03-02T01:28:04.085Z,-0.67
2018-03-02T01:30:30.487Z,-0.62
2018-03-02T01:32:56.978Z,-0.85
2018-03-02T01:35:23.329Z,-1.00
2018-03-02T01:37:49.688Z,-0.80
2018-03-02T01:40:16.027Z,-0.84
2018-03-02T01:42:42.414Z,-0.78
2018-03-02T01:45:08.790Z,-0.84
2018-03-02T01:47:35.155Z,-0.78
2018-03-02T01:50:01.514Z,-0.74
2018-03-02T01:52:27.917Z,-0.81
2018-03-02T01:54:54.241Z,-0.80
2018-03-02T01:57:20.576Z,-0.73
2018-03-02T01:59:46.907Z,-0.76
2018-03-02T02:02:13.265Z,-0.74
2018-03-02T02:04:39.683Z,-0.66
2018-03-02T02:07:06.121Z,-0.66
2018-03-02T02:09:32.477Z,-0.66
2018-03-02T02:11:58.876Z,-0.65
2018-03-02T02:14:25.299Z,-0.64
2018-03-02T02:16:51.634Z,-0.57
2018-03-02T02:19:18.069Z,-0.85
2018-03-02T02:21:44.445Z,-0.67
2018-03-02T02:24:10.797Z,-0.63
2018-03-02T02:26:37.191Z,-0.62
2018-03-02T02:29:03.566Z,-0.56
2018-03-02T02:31:29.914Z,-0.62
2018-03-02T02:33:56.253Z,-0.63
2018-03-02T02:36:22.659Z,-0.56
2018-03-02T02:38:49.009Z,-0.58
2018-03-02T02:41:15.373Z,-0.59
2018-03-02T02:43:41.763Z,-0.54
2018-03-02T02:46:08.143Z,-0.53
2018-03-02T02:48:34.552Z,-0.61
2018-03-02T02:51:00.910Z,-0.59
2018-03-02T02:53:27.283Z,-0.64
2018-03-02T02:55:53.691Z,-0.57
2018-03-02T02:58:20.098Z,-0.65
2018-03-02T03:00:46.474Z,-0.58
2018-03-02T03:03:12.852Z,-0.74
2018-03-02T03:05:39.221Z,-0.71
2018-03-02T03:08:05.569Z,-0.81
2018-03-02T03:10:32.081Z,-0.93
2018-03-02T03:12:58.418Z,-1.03
2018-03-02T03:15:24.769Z,-0.82
2018-03-02T03:17:51.159Z,-0.84
2018-03-02T03:20:17.548Z,-1.02
2018-03-02T03:22:43.988Z,-0.93
2018-03-02T03:25:10.325Z,-0.77
2018-03-02T03:27:36.649Z,-0.67
2018-03-02T03:30:03.040Z,-0.77
2018-03-02T03:32:29.425Z,-0.77
2018-03-02T03:34:55.784Z,-0.70
2018-03-02T03:37:22.178Z,-0.83
2018-03-02T03:39:48.501Z,-0.75
2018-03-02T03:42:14.838Z,-0.93
2018-03-02T03:44:41.225Z,-1.36
2018-03-02T03:47:07.607Z,-1.32
2018-03-02T03:49:33.961Z,-1.21
2018-03-02T03:52:00.322Z,-1.18
2018-03-02T03:54:26.654Z,-1.16
2018-03-02T03:56:53.037Z,-1.22
2018-03-02T03:59:19.370Z,-1.19
2018-03-02T04:01:45.773Z,-1.24
2018-03-02T04:04:12.156Z,-1.23
2018-03-02T04:06:38.513Z,-1.23
2018-03-02T04:09:04.874Z,-1.23
2018-03-02T04:11:31.218Z,-1.10
2018-03-02T04:13:57.579Z,-1.24
2018-03-02T04:16:23.939Z,-1.20
2018-03-02T04:18:50.289Z,-1.14
2018-03-02T04:21:16.655Z,-1.20
2018-03-02T04:23:43.013Z,-1.09
2018-03-02T04:26:09.434Z,-1.05
2018-03-02T04:28:35.759Z,-0.95
2018-03-02T04:31:02.170Z,-0.90
2018-03-02T04:33:28.548Z,-0.96
2018-03-02T04:35:54.896Z,-0.98
2018-03-02T04:38:21.245Z,-0.85
2018-03-02T04:40:47.640Z,-0.83
2018-03-02T04:43:14.068Z,-0.99
2018-03-02T04:45:40.423Z,-1.29
2018-03-02T04:48:06.858Z,-1.20
2018-03-02T04:50:33.201Z,-1.12
2018-03-02T04:52:59.565Z,-0.95
2018-03-02T04:55:25.934Z,-0.94
2018-03-02T04:57:52.281Z,-0.99
2018-03-02T05:00:18.717Z,-0.98
2018-03-02T05:02:45.066Z,-1.00
2018-03-02T05:05:11.581Z,-0.95
2018-03-02T05:07:37.931Z,-0.89
2018-03-02T05:10:04.278Z,-0.85
2018-03-02T05:12:30.891Z,-1.00
2018-03-02T05:14:57.262Z,-0.65
2018-03-02T05:17:23.643Z,-0.65
2018-03-02T05:19:50.018Z,-0.68
2018-03-02T05:22:16.388Z,-0.71
2018-03-02T05:24:42.734Z,-0.61
2018-03-02T05:27:09.111Z,-0.83
2018-03-02T05:29:35.461Z,-0.91
2018-03-02T05:32:01.810Z,-0.73
2018-03-02T05:34:28.161Z,-0.72
2018-03-02T05:36:54.553Z,-0.76
2018-03-02T05:39:20.881Z,-0.79
2018-03-02T05:41:47.210Z,-0.80
2018-03-02T05:44:13.542Z,-0.82
2018-03-02T05:46:39.925Z,-0.67
2018-03-02T05:49:06.306Z,-0.59
2018-03-02T05:51:32.694Z,-0.67
2018-03-02T05:53:59.065Z,-0.69
2018-03-02T05:56:25.427Z,-0.74
2018-03-02T05:58:51.878Z,-0.82
2018-03-02T06:01:18.254Z,-0.80
2018-03-02T06:03:44.625Z,-0.67
2018-03-02T06:06:10.986Z,-0.79
2018-03-02T06:08:37.362Z,-0.44
2018-03-02T06:11:03.857Z,-0.55
2018-03-02T06:13:30.440Z,-0.44
2018-03-02T06:15:56.833Z,-0.46
2018-03-02T06:18:23.466Z,-0.39
2018-03-02T06:20:49.966Z,-0.38
2018-03-02T06:23:16.393Z,-0.37
2018-03-02T06:25:42.802Z,-0.32
2018-03-02T06:28:09.385Z,-0.36
2018-03-02T06:30:35.756Z,-0.51
2018-03-02T06:33:02.351Z,-0.49
2018-03-02T06:35:28.697Z,-0.34
2018-03-02T06:37:55.071Z,-0.28
2018-03-02T06:40:21.511Z,-0.34
2018-03-02T06:42:47.932Z,-0.30
2018-03-02T06:45:14.291Z,-0.85
2018-03-02T06:47:40.770Z,-0.58
2018-03-02T06:50:07.122Z,-0.25
2018-03-02T06:52:33.769Z,-0.14
2018-03-02T06:55:00.122Z,-0.42
2018-03-02T06:57:26.581Z,-0.51
2018-03-02T06:59:53.001Z,-0.75
2018-03-02T07:02:19.452Z,-0.71
2018-03-02T07:04:45.894Z,-0.65
2018-03-02T07:07:12.316Z,-0.59
2018-03-02T07:09:38.799Z,-0.31
2018-03-02T07:12:05.358Z,-0.23
2018-03-02T07:14:31.818Z,-0.16
2018-03-02T07:16:58.226Z,-0.16
2018-03-02T07:19:24.586Z,0.00
2018-03-02T07:21:50.946Z,0.10
2018-03-02T07:24:17.334Z,-0.09
2018-03-02T07:26:43.878Z,-0.02
2018-03-02T07:29:10.235Z,-0.02
2018-03-02T07:31:36.654Z,-0.05
2018-03-02T07:34:03.098Z,0.00
2018-03-02T07:36:29.560Z,-0.07
2018-03-02T07:38:55.920Z,0.03
2018-03-02T07:41:22.298Z,0.16
2018-03-02T07:43:48.731Z,0.28
2018-03-02T07:46:15.135Z,0.22
2018-03-02T07:48:41.573Z,0.09
2018-03-02T07:51:08.011Z,0.04
2018-03-02T07:53:34.429Z,0.15
2018-03-02T07:56:00.849Z,0.07
2018-03-02T07:58:27.325Z,0.08
2018-03-02T08:00:53.717Z,0.24
2018-03-02T08:03:20.144Z,0.34
2018-03-02T08:05:46.503Z,0.22
2018-03-02T08:08:13.087Z,0.21
2018-03-02T08:10:39.435Z,0.21
2018-03-02T08:13:05.883Z,0.28
2018-03-02T08:15:32.314Z,0.43
2018-03-02T08:17:58.813Z,0.55
2018-03-02T08:20:25.243Z,0.31
2018-03-02T08:22:51.614Z,0.34
2018-03-02T08:25:17.972Z,0.38
2018-03-02T08:27:44.391Z,0.28
2018-03-02T08:30:10.730Z,0.20
2018-03-02T08:32:37.106Z,0.18
2018-03-02T08:35:03.546Z,0.27
2018-03-02T08:37:29.881Z,0.28
2018-03-02T08:39:56.246Z,0.42
2018-03-02T08:42:22.694Z,0.40
2018-03-02T08:44:49.093Z,0.26
2018-03-02T08:47:15.445Z,0.40
2018-03-02T08:49:41.825Z,0.45
2018-03-02T08:52:08.282Z,0.53
2018-03-02T08:54:34.682Z,0.48
2018-03-02T08:57:01.137Z,0.51
2018-03-02T08:59:27.741Z,0.43
2018-03-02T09:01:54.104Z,0.50
2018-03-02T09:04:20.449Z,0.52
2018-03-02T09:06:46.890Z,0.52
2018-03-02T09:09:13.227Z,0.57
2018-03-02T09:11:39.632Z,0.60
2018-03-02T09:14:06.224Z,0.66
2018-03-02T09:16:32.639Z,0.69
2018-03-02T09:18:59.056Z,0.64
2018-03-02T09:21:25.423Z,0.65
2018-03-02T09:23:51.793Z,0.33
2018-03-02T09:26:18.309Z,0.48
2018-03-02T09:28:44.643Z,0.55
2018-03-02T09:31:11.017Z,0.61
2018-03-02T09:33:37.358Z,0.55
2018-03-02T09:36:03.755Z,0.58
2018-03-02T09:38:30.102Z,0.61
2018-03-02T09:40:56.450Z,0.71
2018-03-02T09:43:22.874Z,0.72
2018-03-02T09:45:49.249Z,0.84
2018-03-02T09:48:15.625Z,0.89
2018-03-02T09:50:41.989Z,0.92
2018-03-02T09:53:08.334Z,0.82
2018-03-02T09:55:34.727Z,0.78
2018-03-02T09:58:01.082Z,0.71
2018-03-02T10:00:27.430Z,0.79
2018-03-02T10:02:53.807Z,0.82
2018-03-02T10:05:20.198Z,0.82
2018-03-02T10:07:46.578Z,0.88
2018-03-02T10:10:13.118Z,0.94
2018-03-02T10:12:39.501Z,0.97
2018-03-02T10:15:05.897Z,1.19
2018-03-02T10:17:32.281Z,1.11
2018-03-02T10:19:58.636Z,1.10
2018-03-02T10:22:25.074Z,1.02
2018-03-02T10:24:51.438Z,1.03
2018-03-02T10:27:17.974Z,1.01
2018-03-02T10:29:44.322Z,0.88
2018-03-02T10:32:10.774Z,0.95
2018-03-02T10:34:37.191Z,0.98
2018-03-02T10:37:03.672Z,0.63
2018-03-02T10:39:30.045Z,0.75
2018-03-02T10:41:56.535Z,0.77
2018-03-02T10:44:22.923Z,0.84
2018-03-02T10:46:49.304Z,0.85
2018-03-02T10:49:15.773Z,0.58
2018-03-02T10:51:42.185Z,0.68
2018-03-02T10:54:08.551Z,0.82
2018-03-02T10:56:34.953Z,0.86
2018-03-02T10:59:01.368Z,0.80
2018-03-02T11:01:27.730Z,0.89
2018-03-02T11:04:00.172Z,1.00
2018-03-02T11:06:26.625Z,1.07
2018-03-02T11:08:53.097Z,1.06
2018-03-02T11:11:19.499Z,1.05
2018-03-02T11:13:45.967Z,1.17
2018-03-02T11:16:12.377Z,1.01
2018-03-02T11:18:38.753Z,0.98
2018-03-02T11:21:05.160Z,0.78
2018-03-02T11:23:31.514Z,0.69
2018-03-02T11:25:57.870Z,0.90
2018-03-02T11:28:24.207Z,1.17
2018-03-02T11:30:50.695Z,1.19
2018-03-02T11:33:17.221Z,1.27
2018-03-02T11:35:43.626Z,1.16
2018-03-02T11:38:10.032Z,1.28
2018-03-02T11:40:36.438Z,1.22
2018-03-02T11:43:02.829Z,1.50
2018-03-02T11:45:29.226Z,1.41
2018-03-02T11:47:55.611Z,1.33
2018-03-02T11:50:22.187Z,1.24
2018-03-02T11:52:48.578Z,1.16
2018-03-02T11:55:15.161Z,1.30
2018-03-02T11:57:41.494Z,1.36
2018-03-02T12:00:07.902Z,1.45
2018-03-02T12:02:34.281Z,1.28
2018-03-02T12:05:00.658Z,1.26
2018-03-02T12:07:27.267Z,1.30
2018-03-02T12:09:53.954Z,1.29
2018-03-02T12:12:20.514Z,1.27
2018-03-02T12:14:46.918Z,1.31
2018-03-02T12:17:13.297Z,1.36
2018-03-02T12:19:39.713Z,1.46
2018-03-02T12:22:06.087Z,1.51
2018-03-02T12:24:32.467Z,1.53
2018-03-02T12:26:58.801Z,1.53
2018-03-02T12:29:25.287Z,1.52
2018-03-02T12:31:51.660Z,1.57
2018-03-02T12:34:18.209Z,1.62
2018-03-02T12:36:44.726Z,1.67
2018-03-02T12:39:11.105Z,1.73
2018-03-02T12:41:37.802Z,1.63
2018-03-02T12:44:04.260Z,1.27
2018-03-02T12:46:30.805Z,0.96
2018-03-02T12:48:57.258Z,1.21
2018-03-02T12:51:23.725Z,1.28
2018-03-02T12:53:50.068Z,1.38
2018-03-02T12:56:16.402Z,1.43
2018-03-02T12:58:42.769Z,1.30
2018-03-02T13:01:09.135Z,1.44
2018-03-02T13:03:35.831Z,1.49
2018-03-02T13:06:02.317Z,1.45
2018-03-02T13:08:28.708Z,1.54
2018-03-02T13:10:55.158Z,1.53
2018-03-02T13:13:21.542Z,1.41
2018-03-02T13:15:47.926Z,1.06
2018-03-02T13:18:26.568Z,1.18
2018-03-02T13:20:52.861Z,1.29
2018-03-02T13:23:19.642Z,1.45
2018-03-02T13:25:46.098Z,1.44
2018-03-02T13:28:24.899Z,1.55
2018-03-02T13:30:51.226Z,1.58
2018-03-02T13:33:29.878Z,1.60
2018-03-02T13:35:56.257Z,1.64
2018-03-02T13:38:22.690Z,1.73
2018-03-02T13:41:01.224Z,1.82
2018-03-02T13:43:27.627Z,1.84
2018-03-02T13:45:54.087Z,1.99
2018-03-02T13:48:41.396Z,1.92
2018-03-02T13:51:07.717Z,2.03
2018-03-02T13:53:34.086Z,2.00
2018-03-02T13:56:00.494Z,2.04
2018-03-02T13:58:26.965Z,1.69
2018-03-02T14:00:53.374Z,1.79
2018-03-02T14:16:46.623Z,1.82
2018-03-02T14:19:12.957Z,1.81
2018-03-02T14:21:39.411Z,1.67
2018-03-02T14:24:05.736Z,1.57
2018-03-02T14:26:32.109Z,1.73
2018-03-02T14:28:58.465Z,1.85
2018-03-02T14:31:24.850Z,1.85
2018-03-02T14:33:51.201Z,1.93
2018-03-02T14:36:17.579Z,1.94
2018-03-02T14:38:43.983Z,1.92
2018-03-02T14:41:10.334Z,1.85
2018-03-02T14:43:36.738Z,1.82
2018-03-02T14:46:03.138Z,1.37
2018-03-02T14:48:29.534Z,1.45
2018-03-02T14:50:55.877Z,1.43
2018-03-02T14:53:22.262Z,1.62
2018-03-02T14:55:48.697Z,1.67
2018-03-02T14:58:15.092Z,1.71
2018-03-02T15:00:41.461Z,1.69
2018-03-02T15:03:07.815Z,1.39
2018-03-02T15:05:34.304Z,1.34
2018-03-02T15:08:00.658Z,1.49
2018-03-02T15:10:27.199Z,1.61
2018-03-02T15:12:53.617Z,1.65
2018-03-02T15:15:20.042Z,1.62
2018-03-02T15:17:46.538Z,1.58
2018-03-02T15:20:12.845Z,1.52
2018-03-02T15:22:39.220Z,1.57
2018-03-02T15:25:05.600Z,1.50
2018-03-02T15:27:31.969Z,1.51
2018-03-02T15:29:58.312Z,1.29
2018-03-02T15:32:24.697Z,1.42
2018-03-02T15:34:51.060Z,1.39
2018-03-02T15:37:17.441Z,1.47
2018-03-02T15:39:43.814Z,1.51
2018-03-02T15:42:10.180Z,1.50
2018-03-02T15:44:36.621Z,1.54
2018-03-02T15:47:03.054Z,1.55
2018-03-02T15:49:29.471Z,1.54
2018-03-02T15:51:55.853Z,1.58
2018-03-02T15:54:22.246Z,1.66
2018-03-02T15:56:48.603Z,1.61
2018-03-02T15:59:14.954Z,1.56
2018-03-02T16:01:41.318Z,1.47
2018-03-02T16:04:07.660Z,1.46
2018-03-02T16:06:34.006Z,1.50
2018-03-02T16:09:00.354Z,1.24
2018-03-02T16:11:26.714Z,1.38
2018-03-02T16:13:53.111Z,1.38
2018-03-02T16:16:19.498Z,1.49
2018-03-02T16:18:45.967Z,1.43
2018-03-02T16:21:12.326Z,1.39
2018-03-02T16:23:38.731Z,1.50
2018-03-02T16:26:05.139Z,1.40
2018-03-02T16:28:31.480Z,1.39
2018-03-02T16:30:57.912Z,1.48
2018-03-02T16:33:24.333Z,1.42
2018-03-02T16:35:50.722Z,1.29
2018-03-02T16:38:17.107Z,1.11
2018-03-02T16:40:43.502Z,1.20
2018-03-02T16:43:09.904Z,1.23
2018-03-02T16:45:36.337Z,1.34
2018-03-02T16:48:02.706Z,1.29
2018-03-02T16:50:29.070Z,1.43
2018-03-02T16:52:55.422Z,1.44
2018-03-02T16:55:21.794Z,1.33
2018-03-02T16:57:48.354Z,1.41
2018-03-02T17:00:14.770Z,1.47
2018-03-02T17:02:41.203Z,1.48
2018-03-02T17:05:07.611Z,1.44
2018-03-02T17:07:34.162Z,1.38
2018-03-02T17:10:00.515Z,1.35
2018-03-02T17:12:26.966Z,1.25
2018-03-02T17:14:53.818Z,1.12
2018-03-02T17:17:20.250Z,1.29
2018-03-02T17:19:46.642Z,1.37
2018-03-02T17:22:12.988Z,1.36
2018-03-02T17:24:39.444Z,1.44
2018-03-02T17:27:05.858Z,1.49
2018-03-02T17:29:32.230Z,1.40
2018-03-02T17:31:58.661Z,1.33
2018-03-02T17:34:25.010Z,1.39
2018-03-02T17:36:51.405Z,1.53
2018-03-02T17:39:17.884Z,1.58
2018-03-02T17:41:44.246Z,1.57
2018-03-02T17:44:10.688Z,1.52
2018-03-02T17:46:37.062Z,1.40
2018-03-02T17:49:03.450Z,1.49
2018-03-02T17:51:29.810Z,1.45
2018-03-02T17:53:56.177Z,1.56
2018-03-02T17:56:22.626Z,1.55
2018-03-02T17:58:49.077Z,1.33
2018-03-02T18:01:15.531Z,1.52
2018-03-02T18:03:41.942Z,1.47
2018-03-02T18:06:08.292Z,1.46
2018-03-02T18:08:34.734Z,1.30
2018-03-02T18:11:01.097Z,1.26
2018-03-02T18:13:27.438Z,1.14
2018-03-02T18:15:53.912Z,1.05
2018-03-02T18:18:20.279Z,1.17
2018-03-02T18:20:46.622Z,1.28
2018-03-02T18:23:12.984Z,1.33
2018-03-02T18:25:39.394Z,1.35
2018-03-02T18:28:05.763Z,1.44
2018-03-02T18:30:32.177Z,1.18
2018-03-02T18:32:58.534Z,1.25
2018-03-02T18:35:24.939Z,1.27
2018-03-02T18:37:51.394Z,1.41
2018-03-02T18:40:17.742Z,1.00
2018-03-02T18:42:44.078Z,0.99
2018-03-02T18:45:10.426Z,1.14
2018-03-02T18:47:36.801Z,1.34
2018-03-02T18:50:03.259Z,1.40
2018-03-02T18:52:29.639Z,1.46
2018-03-02T18:54:55.997Z,1.41
2018-03-02T18:57:22.429Z,1.42
2018-03-02T18:59:48.864Z,1.44
2018-03-02T19:02:15.285Z,1.27
2018-03-02T19:04:41.722Z,1.27
2018-03-02T19:07:08.126Z,1.16
2018-03-02T19:09:34.510Z,1.17
2018-03-02T19:12:00.999Z,1.17
2018-03-02T19:14:27.426Z,1.30
2018-03-02T19:16:53.794Z,1.43
2018-03-02T19:19:20.202Z,1.49
2018-03-02T19:21:46.587Z,1.39
2018-03-02T19:24:13.074Z,1.42
2018-03-02T19:26:39.454Z,1.45
2018-03-02T19:29:05.821Z,1.47
2018-03-02T19:31:32.175Z,1.38
2018-03-02T19:33:58.654Z,1.43
2018-03-02T19:36:25.037Z,1.40
2018-03-02T19:38:51.421Z,1.28
2018-03-02T19:41:17.845Z,1.31
2018-03-02T19:43:44.194Z,1.06
2018-03-02T19:46:10.543Z,1.13
2018-03-02T19:48:37.012Z,1.04
2018-03-02T19:51:03.387Z,0.87
2018-03-02T19:53:29.730Z,0.95
2018-03-02T19:55:56.074Z,1.18
2018-03-02T19:58:22.458Z,1.23
2018-03-02T20:00:48.791Z,1.33
2018-03-02T20:03:15.266Z,1.33
2018-03-02T20:05:41.639Z,1.22
2018-03-02T20:08:08.068Z,1.21
2018-03-02T20:10:34.444Z,1.15
2018-03-02T20:13:00.769Z,1.10
2018-03-02T20:15:27.189Z,1.17
2018-03-02T20:17:53.581Z,1.28
2018-03-02T20:20:19.963Z,1.19
2018-03-02T20:22:46.304Z,1.23
2018-03-02T20:25:12.666Z,1.32
2018-03-02T20:27:39.070Z,1.38
2018-03-02T20:30:05.534Z,1.34
2018-03-02T20:32:31.917Z,1.34
2018-03-02T20:34:58.326Z,1.33
2018-03-02T20:37:24.694Z,1.28
2018-03-02T20:39:51.110Z,1.36
2018-03-02T20:42:17.564Z,1.35
2018-03-02T20:44:43.997Z,1.25
2018-03-02T20:47:10.328Z,1.33
2018-03-02T20:49:36.797Z,1.38
2018-03-02T20:52:10.502Z,1.34
2018-03-02T20:54:36.945Z,1.45
2018-03-02T20:57:03.337Z,1.49
2018-03-02T20:59:29.685Z,1.51
2018-03-02T21:01:56.040Z,1.53
2018-03-02T21:04:22.425Z,1.54
2018-03-02T21:06:48.793Z,1.54
2018-03-02T21:09:15.178Z,1.51
2018-03-02T21:11:41.558Z,1.55
2018-03-02T21:14:07.930Z,1.56
2018-03-02T21:16:34.286Z,1.58
2018-03-02T21:19:00.693Z,1.60
2018-03-02T21:21:27.062Z,1.61
2018-03-02T21:23:53.448Z,1.62
2018-03-02T21:26:19.812Z,1.65
2018-03-02T21:28:46.178Z,1.63
2018-03-02T21:31:12.530Z,1.68
2018-03-02T21:33:38.890Z,1.72
2018-03-02T21:36:05.285Z,1.71
2018-03-02T21:38:31.646Z,1.72
2018-03-02T21:40:58.039Z,1.78
2018-03-02T21:43:24.445Z,1.71
2018-03-02T21:45:50.795Z,1.75
2018-03-02T21:48:17.174Z,1.74
2018-03-02T21:50:43.544Z,1.75
2018-03-02T21:53:09.903Z,1.75
2018-03-02T21:55:36.322Z,1.71
2018-03-02T21:58:02.705Z,1.79
2018-03-02T22:00:29.061Z,1.79
2018-03-02T22:02:55.536Z,1.80
2018-03-02T22:05:21.915Z,1.78
2018-03-02T22:07:48.282Z,1.76
2018-03-02T22:10:14.630Z,1.80
2018-03-02T22:12:40.998Z,1.79
2018-03-02T22:15:07.356Z,1.77
2018-03-02T22:17:33.783Z,1.73
2018-03-02T22:20:00.119Z,1.70
2018-03-02T22:22:26.486Z,1.73
2018-03-02T22:24:52.934Z,1.54
2018-03-02T22:27:19.259Z,1.54
2018-03-02T22:29:45.625Z,1.56
2018-03-02T22:32:12.014Z,1.65
2018-03-02T22:34:38.358Z,1.57
2018-03-02T22:37:04.750Z,1.59
2018-03-02T22:39:31.178Z,1.62
2018-03-02T22:41:57.565Z,1.57
2018-03-02T22:44:23.973Z,1.53
2018-03-02T22:46:50.358Z,1.55
2018-03-02T22:49:16.694Z,1.54
2018-03-02T22:51:43.053Z,1.49
2018-03-02T22:54:09.457Z,1.53
2018-03-02T22:56:35.850Z,1.53
2018-03-02T22:59:02.238Z,1.56
2018-03-02T23:01:28.610Z,1.53
2018-03-02T23:03:54.986Z,1.53
2018-03-02T23:06:21.350Z,1.57
2018-03-02T23:08:47.738Z,1.56
2018-03-02T23:11:14.197Z,1.63
2018-03-02T23:13:40.677Z,1.62
2018-03-02T23:16:07.066Z,1.50
2018-03-02T23:18:33.460Z,1.39
2018-03-02T23:20:59.852Z,1.46
2018-03-02T23:23:26.251Z,1.48
2018-03-02T23:25:52.611Z,1.55
2018-03-02T23:28:19.045Z,1.38
2018-03-02T23:30:45.425Z,1.53
2018-03-02T23:33:11.833Z,1.60
2018-03-02T23:35:38.226Z,1.63
2018-03-02T23:38:04.616Z,1.64
2018-03-02T23:40:31.013Z,1.69
2018-03-02T23:42:57.411Z,1.72
2018-03-02T23:45:23.823Z,1.63
2018-03-02T23:47:50.234Z,1.65
2018-03-02T23:50:16.638Z,1.68
2018-03-02T23:52:43.046Z,1.72
2018-03-02T23:55:09.434Z,1.71
2018-03-02T23:57:35.809Z,1.72
